sensor_id;sensor_type;location;lat;lon;timestamp;temperature;humidity
5246;DHT22;54412;51.206;6.888;2023-04-03T00:01:37;4.50;99.90
5246;DHT22;54412;51.206;6.888;2023-04-03T00:04:05;4.40;99.90
5246;DHT22;54412;51.206;6.888;2023-04-03T00:06:31;4.40;99.90
5246;DHT22;54412;51.206;6.888;2023-04-03T00:08:57;4.20;99.90
5246;DHT22;54412;51.206;6.888;2023-04-03T00:11:23;4.20;99.90
5246;DHT22;54412;51.206;6.888;2023-04-03T00:13:49;4.40;99.90
5246;DHT22;54412;51.206;6.888;2023-04-03T00:16:15;4.50;99.90
5246;DHT22;54412;51.206;6.888;2023-04-03T00:18:41;4.50;99.90
5246;DHT22;54412;51.206;6.888;2023-04-03T00:21:07;4.50;99.90
5246;DHT22;54412;51.206;6.888;2023-04-03T00:23:35;4.50;99.90
5246;DHT22;54412;51.206;6.888;2023-04-03T00:26:00;4.50;99.90
5246;DHT22;54412;51.206;6.888;2023-04-03T00:28:26;4.40;99.90
5246;DHT22;54412;51.206;6.888;2023-04-03T00:30:52;4.50;99.90
5246;DHT22;54412;51.206;6.888;2023-04-03T00:33:18;4.60;99.90
5246;DHT22;54412;51.206;6.888;2023-04-03T00:35:47;4.60;99.90
5246;DHT22;54412;51.206;6.888;2023-04-03T00:38:14;4.50;99.90
5246;DHT22;54412;51.206;6.888;2023-04-03T00:40:43;4.40;99.90
5246;DHT22;54412;51.206;6.888;2023-04-03T00:43:19;4.40;99.90
5246;DHT22;54412;51.206;6.888;2023-04-03T00:45:52;4.40;99.90
5246;DHT22;54412;51.206;6.888;2023-04-03T00:48:24;4.40;99.90
5246;DHT22;54412;51.206;6.888;2023-04-03T00:50:54;4.30;99.90
5246;DHT22;54412;51.206;6.888;2023-04-03T00:53:29;4.20;99.90
5246;DHT22;54412;51.206;6.888;2023-04-03T00:55:59;4.10;99.90
5246;DHT22;54412;51.206;6.888;2023-04-03T00:58:32;4.00;99.90
5246;DHT22;54412;51.206;6.888;2023-04-03T01:01:07;4.10;99.90
5246;DHT22;54412;51.206;6.888;2023-04-03T01:03:35;4.10;99.90
5246;DHT22;54412;51.206;6.888;2023-04-03T01:06:01;4.00;99.90
5246;DHT22;54412;51.206;6.888;2023-04-03T01:08:28;3.90;99.90
5246;DHT22;54412;51.206;6.888;2023-04-03T01:10:54;4.00;99.90
5246;DHT22;54412;51.206;6.888;2023-04-03T01:15:51;4.20;99.90
5246;DHT22;54412;51.206;6.888;2023-04-03T01:18:17;4.10;99.90
5246;DHT22;54412;51.206;6.888;2023-04-03T01:24:07;3.80;99.90
5246;DHT22;54412;51.206;6.888;2023-04-03T01:26:48;3.80;99.90
5246;DHT22;54412;51.206;6.888;2023-04-03T01:29:13;3.80;99.90
5246;DHT22;54412;51.206;6.888;2023-04-03T01:31:53;3.70;99.90
5246;DHT22;54412;51.206;6.888;2023-04-03T01:34:23;3.70;99.90
5246;DHT22;54412;51.206;6.888;2023-04-03T01:36:49;3.70;99.90
5246;DHT22;54412;51.206;6.888;2023-04-03T01:39:16;3.70;99.90
5246;DHT22;54412;51.206;6.888;2023-04-03T01:41:42;3.90;99.90
5246;DHT22;54412;51.206;6.888;2023-04-03T01:44:08;3.90;99.90
5246;DHT22;54412;51.206;6.888;2023-04-03T01:46:34;3.70;99.90
5246;DHT22;54412;51.206;6.888;2023-04-03T01:49:00;3.70;99.90
5246;DHT22;54412;51.206;6.888;2023-04-03T01:51:26;3.70;99.90
5246;DHT22;54412;51.206;6.888;2023-04-03T01:53:51;3.60;99.90
5246;DHT22;54412;51.206;6.888;2023-04-03T01:56:17;3.60;99.90
5246;DHT22;54412;51.206;6.888;2023-04-03T01:58:43;3.70;99.90
5246;DHT22;54412;51.206;6.888;2023-04-03T02:01:08;3.70;99.90
5246;DHT22;54412;51.206;6.888;2023-04-03T02:03:34;3.70;99.90
5246;DHT22;54412;51.206;6.888;2023-04-03T02:06:00;3.70;99.90
5246;DHT22;54412;51.206;6.888;2023-04-03T02:08:26;3.70;99.90
5246;DHT22;54412;51.206;6.888;2023-04-03T02:10:51;3.90;99.90
5246;DHT22;54412;51.206;6.888;2023-04-03T02:13:17;3.80;99.90
5246;DHT22;54412;51.206;6.888;2023-04-03T02:15:43;3.90;99.90
5246;DHT22;54412;51.206;6.888;2023-04-03T02:18:09;4.00;99.90
5246;DHT22;54412;51.206;6.888;2023-04-03T02:20:35;4.00;99.90
5246;DHT22;54412;51.206;6.888;2023-04-03T02:23:01;3.90;99.90
5246;DHT22;54412;51.206;6.888;2023-04-03T02:25:27;3.80;99.90
5246;DHT22;54412;51.206;6.888;2023-04-03T02:27:52;3.80;99.90
5246;DHT22;54412;51.206;6.888;2023-04-03T02:30:18;3.80;99.90
5246;DHT22;54412;51.206;6.888;2023-04-03T02:32:44;3.80;99.90
5246;DHT22;54412;51.206;6.888;2023-04-03T02:35:11;3.90;99.90
5246;DHT22;54412;51.206;6.888;2023-04-03T02:37:37;4.00;99.90
5246;DHT22;54412;51.206;6.888;2023-04-03T02:40:04;4.00;99.90
5246;DHT22;54412;51.206;6.888;2023-04-03T02:42:31;3.90;99.90
5246;DHT22;54412;51.206;6.888;2023-04-03T02:44:57;3.80;99.90
5246;DHT22;54412;51.206;6.888;2023-04-03T02:47:23;3.90;99.90
5246;DHT22;54412;51.206;6.888;2023-04-03T02:49:48;4.00;99.90
5246;DHT22;54412;51.206;6.888;2023-04-03T02:52:14;3.90;99.90
5246;DHT22;54412;51.206;6.888;2023-04-03T02:54:40;4.10;99.90
5246;DHT22;54412;51.206;6.888;2023-04-03T02:57:06;4.10;99.90
5246;DHT22;54412;51.206;6.888;2023-04-03T02:59:37;4.00;99.90
5246;DHT22;54412;51.206;6.888;2023-04-03T03:02:07;4.00;99.90
5246;DHT22;54412;51.206;6.888;2023-04-03T03:04:34;4.00;99.90
5246;DHT22;54412;51.206;6.888;2023-04-03T03:07:01;3.90;99.90
5246;DHT22;54412;51.206;6.888;2023-04-03T03:09:26;3.90;99.90
5246;DHT22;54412;51.206;6.888;2023-04-03T03:11:53;3.90;99.90
5246;DHT22;54412;51.206;6.888;2023-04-03T03:14:18;3.80;99.90
5246;DHT22;54412;51.206;6.888;2023-04-03T03:16:44;4.00;99.90
5246;DHT22;54412;51.206;6.888;2023-04-03T03:19:10;4.00;99.90
5246;DHT22;54412;51.206;6.888;2023-04-03T03:21:36;4.00;99.90
5246;DHT22;54412;51.206;6.888;2023-04-03T03:24:02;4.10;99.90
5246;DHT22;54412;51.206;6.888;2023-04-03T03:26:28;4.00;99.90
5246;DHT22;54412;51.206;6.888;2023-04-03T03:28:54;3.90;99.90
5246;DHT22;54412;51.206;6.888;2023-04-03T03:31:20;3.90;99.90
5246;DHT22;54412;51.206;6.888;2023-04-03T03:33:45;3.90;99.90
5246;DHT22;54412;51.206;6.888;2023-04-03T03:36:11;3.90;99.90
5246;DHT22;54412;51.206;6.888;2023-04-03T03:38:37;3.90;99.90
5246;DHT22;54412;51.206;6.888;2023-04-03T03:41:03;3.80;99.90
5246;DHT22;54412;51.206;6.888;2023-04-03T03:43:28;3.80;99.90
5246;DHT22;54412;51.206;6.888;2023-04-03T03:45:54;3.90;99.90
5246;DHT22;54412;51.206;6.888;2023-04-03T03:48:21;3.90;99.90
5246;DHT22;54412;51.206;6.888;2023-04-03T03:50:47;4.00;99.90
5246;DHT22;54412;51.206;6.888;2023-04-03T03:53:13;4.10;99.90
5246;DHT22;54412;51.206;6.888;2023-04-03T03:55:40;4.00;99.90
5246;DHT22;54412;51.206;6.888;2023-04-03T03:58:06;4.00;99.90
5246;DHT22;54412;51.206;6.888;2023-04-03T04:00:32;4.00;99.90
5246;DHT22;54412;51.206;6.888;2023-04-03T04:02:58;4.10;99.90
5246;DHT22;54412;51.206;6.888;2023-04-03T04:05:23;4.10;99.90
5246;DHT22;54412;51.206;6.888;2023-04-03T04:07:49;4.10;99.90
5246;DHT22;54412;51.206;6.888;2023-04-03T04:10:16;4.10;99.90
5246;DHT22;54412;51.206;6.888;2023-04-03T04:12:41;3.90;99.90
5246;DHT22;54412;51.206;6.888;2023-04-03T04:15:08;3.90;99.90
5246;DHT22;54412;51.206;6.888;2023-04-03T04:17:34;3.90;99.90
5246;DHT22;54412;51.206;6.888;2023-04-03T04:20:01;3.80;99.90
5246;DHT22;54412;51.206;6.888;2023-04-03T04:22:28;3.90;99.90
5246;DHT22;54412;51.206;6.888;2023-04-03T04:24:53;3.90;99.90
5246;DHT22;54412;51.206;6.888;2023-04-03T04:27:19;4.00;99.90
5246;DHT22;54412;51.206;6.888;2023-04-03T04:29:45;3.80;99.90
5246;DHT22;54412;51.206;6.888;2023-04-03T04:32:10;3.90;99.90
5246;DHT22;54412;51.206;6.888;2023-04-03T04:34:36;3.90;99.90
5246;DHT22;54412;51.206;6.888;2023-04-03T04:37:02;3.90;99.90
5246;DHT22;54412;51.206;6.888;2023-04-03T04:39:28;4.00;99.90
5246;DHT22;54412;51.206;6.888;2023-04-03T04:41:53;3.80;99.90
5246;DHT22;54412;51.206;6.888;2023-04-03T04:44:19;3.90;99.90
5246;DHT22;54412;51.206;6.888;2023-04-03T04:46:45;3.80;99.90
5246;DHT22;54412;51.206;6.888;2023-04-03T04:49:11;3.80;99.90
5246;DHT22;54412;51.206;6.888;2023-04-03T04:51:37;3.80;99.90
5246;DHT22;54412;51.206;6.888;2023-04-03T04:54:02;3.80;99.90
5246;DHT22;54412;51.206;6.888;2023-04-03T04:56:28;3.80;99.90
5246;DHT22;54412;51.206;6.888;2023-04-03T04:58:54;3.90;99.90
5246;DHT22;54412;51.206;6.888;2023-04-03T05:01:19;3.80;99.90
5246;DHT22;54412;51.206;6.888;2023-04-03T05:03:45;3.80;99.90
5246;DHT22;54412;51.206;6.888;2023-04-03T05:06:11;3.80;99.90
5246;DHT22;54412;51.206;6.888;2023-04-03T05:08:37;3.90;99.90
5246;DHT22;54412;51.206;6.888;2023-04-03T05:11:02;4.10;99.90
5246;DHT22;54412;51.206;6.888;2023-04-03T05:13:28;4.10;99.90
5246;DHT22;54412;51.206;6.888;2023-04-03T05:15:54;3.90;99.90
5246;DHT22;54412;51.206;6.888;2023-04-03T05:18:19;3.80;99.90
5246;DHT22;54412;51.206;6.888;2023-04-03T05:20:47;3.80;99.90
5246;DHT22;54412;51.206;6.888;2023-04-03T05:23:13;3.70;99.90
5246;DHT22;54412;51.206;6.888;2023-04-03T05:25:39;3.80;99.90
5246;DHT22;54412;51.206;6.888;2023-04-03T05:28:06;3.80;99.90
5246;DHT22;54412;51.206;6.888;2023-04-03T05:30:32;3.70;99.90
5246;DHT22;54412;51.206;6.888;2023-04-03T05:32:59;3.70;99.90
5246;DHT22;54412;51.206;6.888;2023-04-03T05:35:25;3.60;99.90
5246;DHT22;54412;51.206;6.888;2023-04-03T05:37:50;3.60;99.90
5246;DHT22;54412;51.206;6.888;2023-04-03T05:40:16;3.60;99.90
5246;DHT22;54412;51.206;6.888;2023-04-03T05:42:43;3.50;99.90
5246;DHT22;54412;51.206;6.888;2023-04-03T05:45:09;3.70;99.90
5246;DHT22;54412;51.206;6.888;2023-04-03T05:47:35;3.70;99.90
5246;DHT22;54412;51.206;6.888;2023-04-03T05:50:01;3.60;99.90
5246;DHT22;54412;51.206;6.888;2023-04-03T05:52:29;3.60;99.90
5246;DHT22;54412;51.206;6.888;2023-04-03T05:54:58;3.60;99.90
5246;DHT22;54412;51.206;6.888;2023-04-03T05:57:24;3.70;99.90
5246;DHT22;54412;51.206;6.888;2023-04-03T05:59:49;3.80;99.90
5246;DHT22;54412;51.206;6.888;2023-04-03T06:02:18;3.80;99.90
5246;DHT22;54412;51.206;6.888;2023-04-03T06:04:46;3.80;99.90
5246;DHT22;54412;51.206;6.888;2023-04-03T06:07:16;3.80;99.90
5246;DHT22;54412;51.206;6.888;2023-04-03T06:09:45;3.90;99.90
5246;DHT22;54412;51.206;6.888;2023-04-03T06:12:10;4.00;99.90
5246;DHT22;54412;51.206;6.888;2023-04-03T06:14:36;4.10;99.90
5246;DHT22;54412;51.206;6.888;2023-04-03T06:17:03;4.30;99.90
5246;DHT22;54412;51.206;6.888;2023-04-03T06:19:29;4.30;99.90
5246;DHT22;54412;51.206;6.888;2023-04-03T06:21:55;4.40;99.90
5246;DHT22;54412;51.206;6.888;2023-04-03T06:24:21;4.40;99.90
5246;DHT22;54412;51.206;6.888;2023-04-03T06:26:49;4.30;99.90
5246;DHT22;54412;51.206;6.888;2023-04-03T06:29:17;4.40;99.90
5246;DHT22;54412;51.206;6.888;2023-04-03T06:31:43;4.40;99.90
5246;DHT22;54412;51.206;6.888;2023-04-03T06:34:10;4.50;99.90
5246;DHT22;54412;51.206;6.888;2023-04-03T06:36:37;4.60;99.90
5246;DHT22;54412;51.206;6.888;2023-04-03T06:39:04;4.60;99.90
5246;DHT22;54412;51.206;6.888;2023-04-03T06:41:33;4.60;99.90
5246;DHT22;54412;51.206;6.888;2023-04-03T06:43:58;4.70;99.90
5246;DHT22;54412;51.206;6.888;2023-04-03T06:46:26;4.80;99.90
5246;DHT22;54412;51.206;6.888;2023-04-03T06:48:52;4.90;99.90
5246;DHT22;54412;51.206;6.888;2023-04-03T06:51:23;5.00;99.90
5246;DHT22;54412;51.206;6.888;2023-04-03T06:53:53;4.90;99.90
5246;DHT22;54412;51.206;6.888;2023-04-03T06:56:20;4.90;99.90
5246;DHT22;54412;51.206;6.888;2023-04-03T06:58:46;5.10;99.90
5246;DHT22;54412;51.206;6.888;2023-04-03T07:01:14;5.30;99.90
5246;DHT22;54412;51.206;6.888;2023-04-03T07:03:41;5.20;99.90
5246;DHT22;54412;51.206;6.888;2023-04-03T07:06:09;5.30;99.90
5246;DHT22;54412;51.206;6.888;2023-04-03T07:08:38;5.50;99.90
5246;DHT22;54412;51.206;6.888;2023-04-03T07:11:05;5.50;99.90
5246;DHT22;54412;51.206;6.888;2023-04-03T07:13:31;5.60;99.90
5246;DHT22;54412;51.206;6.888;2023-04-03T07:15:58;5.70;99.90
5246;DHT22;54412;51.206;6.888;2023-04-03T07:18:24;5.80;99.90
5246;DHT22;54412;51.206;6.888;2023-04-03T07:20:50;5.70;99.90
5246;DHT22;54412;51.206;6.888;2023-04-03T07:23:16;5.90;99.90
5246;DHT22;54412;51.206;6.888;2023-04-03T07:25:47;5.90;99.90
5246;DHT22;54412;51.206;6.888;2023-04-03T07:28:15;5.90;99.90
5246;DHT22;54412;51.206;6.888;2023-04-03T07:30:49;6.10;99.90
5246;DHT22;54412;51.206;6.888;2023-04-03T07:33:27;6.30;99.90
5246;DHT22;54412;51.206;6.888;2023-04-03T07:35:54;6.60;99.90
5246;DHT22;54412;51.206;6.888;2023-04-03T07:38:20;6.70;99.90
5246;DHT22;54412;51.206;6.888;2023-04-03T07:40:50;6.90;99.90
5246;DHT22;54412;51.206;6.888;2023-04-03T07:43:19;7.10;99.90
5246;DHT22;54412;51.206;6.888;2023-04-03T07:45:46;7.30;99.90
5246;DHT22;54412;51.206;6.888;2023-04-03T07:48:15;7.40;99.90
5246;DHT22;54412;51.206;6.888;2023-04-03T07:50:43;7.50;99.90
5246;DHT22;54412;51.206;6.888;2023-04-03T07:53:09;7.80;99.90
5246;DHT22;54412;51.206;6.888;2023-04-03T07:55:36;7.70;99.90
5246;DHT22;54412;51.206;6.888;2023-04-03T07:58:09;7.80;99.90
5246;DHT22;54412;51.206;6.888;2023-04-03T08:00:37;8.00;99.90
5246;DHT22;54412;51.206;6.888;2023-04-03T08:03:04;8.30;99.90
5246;DHT22;54412;51.206;6.888;2023-04-03T08:05:31;8.40;99.90
5246;DHT22;54412;51.206;6.888;2023-04-03T08:08:01;8.40;99.90
5246;DHT22;54412;51.206;6.888;2023-04-03T08:10:26;8.50;99.90
5246;DHT22;54412;51.206;6.888;2023-04-03T08:12:52;8.60;99.90
5246;DHT22;54412;51.206;6.888;2023-04-03T08:15:18;8.80;99.90
5246;DHT22;54412;51.206;6.888;2023-04-03T08:17:43;8.80;99.90
5246;DHT22;54412;51.206;6.888;2023-04-03T08:20:10;9.20;99.90
5246;DHT22;54412;51.206;6.888;2023-04-03T08:22:36;9.30;99.90
5246;DHT22;54412;51.206;6.888;2023-04-03T08:25:02;9.50;99.90
5246;DHT22;54412;51.206;6.888;2023-04-03T08:27:28;9.30;99.90
5246;DHT22;54412;51.206;6.888;2023-04-03T08:29:54;9.30;99.90
5246;DHT22;54412;51.206;6.888;2023-04-03T08:32:22;9.50;99.90
5246;DHT22;54412;51.206;6.888;2023-04-03T08:34:48;9.80;99.90
5246;DHT22;54412;51.206;6.888;2023-04-03T08:37:15;9.90;99.90
5246;DHT22;54412;51.206;6.888;2023-04-03T08:39:43;10.10;99.90
5246;DHT22;54412;51.206;6.888;2023-04-03T08:42:24;9.90;99.90
5246;DHT22;54412;51.206;6.888;2023-04-03T08:45:13;10.30;99.90
5246;DHT22;54412;51.206;6.888;2023-04-03T08:50:30;9.60;99.90
5246;DHT22;54412;51.206;6.888;2023-04-03T08:53:01;10.00;99.90
5246;DHT22;54412;51.206;6.888;2023-04-03T08:55:39;10.50;99.90
5246;DHT22;54412;51.206;6.888;2023-04-03T08:58:17;10.50;99.90
5246;DHT22;54412;51.206;6.888;2023-04-03T09:00:51;10.70;99.90
5246;DHT22;54412;51.206;6.888;2023-04-03T09:03:22;10.40;99.90
5246;DHT22;54412;51.206;6.888;2023-04-03T09:08:33;9.80;98.20
5246;DHT22;54412;51.206;6.888;2023-04-03T09:11:09;9.70;98.50
5246;DHT22;54412;51.206;6.888;2023-04-03T09:14:07;9.40;99.80
5246;DHT22;54412;51.206;6.888;2023-04-03T09:19:36;10.40;99.90
5246;DHT22;54412;51.206;6.888;2023-04-03T09:24:47;9.90;97.10
5246;DHT22;54412;51.206;6.888;2023-04-03T09:27:21;9.80;95.90
5246;DHT22;54412;51.206;6.888;2023-04-03T09:29:47;9.90;98.10
5246;DHT22;54412;51.206;6.888;2023-04-03T09:32:28;9.90;94.90
5246;DHT22;54412;51.206;6.888;2023-04-03T09:35:04;10.00;95.90
5246;DHT22;54412;51.206;6.888;2023-04-03T09:37:44;10.20;97.90
5246;DHT22;54412;51.206;6.888;2023-04-03T09:42:57;10.80;96.80
5246;DHT22;54412;51.206;6.888;2023-04-03T09:45:34;10.90;97.50
5246;DHT22;54412;51.206;6.888;2023-04-03T09:48:18;11.00;98.40
5246;DHT22;54412;51.206;6.888;2023-04-03T09:53:33;11.60;95.80
5246;DHT22;54412;51.206;6.888;2023-04-03T09:58:43;11.50;94.00
5246;DHT22;54412;51.206;6.888;2023-04-03T10:04:22;11.40;91.70
5246;DHT22;54412;51.206;6.888;2023-04-03T10:06:54;11.20;93.00
5246;DHT22;54412;51.206;6.888;2023-04-03T10:09:23;11.10;92.20
5246;DHT22;54412;51.206;6.888;2023-04-03T10:12:07;11.10;92.20
5246;DHT22;54412;51.206;6.888;2023-04-03T10:15:00;11.40;93.60
5246;DHT22;54412;51.206;6.888;2023-04-03T10:32:40;12.80;91.60
5246;DHT22;54412;51.206;6.888;2023-04-03T10:35:44;12.70;89.70
5246;DHT22;54412;51.206;6.888;2023-04-03T10:38:49;12.90;88.30
5246;DHT22;54412;51.206;6.888;2023-04-03T10:41:34;12.90;88.10
5246;DHT22;54412;51.206;6.888;2023-04-03T10:44:15;12.80;81.20
5246;DHT22;54412;51.206;6.888;2023-04-03T10:46:50;12.50;79.70
5246;DHT22;54412;51.206;6.888;2023-04-03T10:49:44;12.60;77.40
5246;DHT22;54412;51.206;6.888;2023-04-03T10:52:20;12.70;83.50
5246;DHT22;54412;51.206;6.888;2023-04-03T10:57:32;12.90;75.90
5246;DHT22;54412;51.206;6.888;2023-04-03T11:00:16;12.60;70.80
5246;DHT22;54412;51.206;6.888;2023-04-03T11:02:51;12.70;74.90
5246;DHT22;54412;51.206;6.888;2023-04-03T11:08:04;12.60;70.80
5246;DHT22;54412;51.206;6.888;2023-04-03T11:10:46;12.80;67.20
5246;DHT22;54412;51.206;6.888;2023-04-03T11:13:19;11.70;70.50
5246;DHT22;54412;51.206;6.888;2023-04-03T11:15:53;12.30;71.70
5246;DHT22;54412;51.206;6.888;2023-04-03T11:18:26;12.70;69.00
5246;DHT22;54412;51.206;6.888;2023-04-03T11:21:07;13.00;69.20
5246;DHT22;54412;51.206;6.888;2023-04-03T11:23:41;13.10;66.10
5246;DHT22;54412;51.206;6.888;2023-04-03T11:26:11;12.50;63.20
5246;DHT22;54412;51.206;6.888;2023-04-03T11:28:39;12.10;64.50
5246;DHT22;54412;51.206;6.888;2023-04-03T11:31:19;12.80;68.00
5246;DHT22;54412;51.206;6.888;2023-04-03T11:34:33;12.70;65.90
5246;DHT22;54412;51.206;6.888;2023-04-03T11:39:59;12.70;62.80
5246;DHT22;54412;51.206;6.888;2023-04-03T11:42:42;12.90;65.50
5246;DHT22;54412;51.206;6.888;2023-04-03T11:50:52;13.80;63.00
5246;DHT22;54412;51.206;6.888;2023-04-03T11:53:30;13.80;62.70
5246;DHT22;54412;51.206;6.888;2023-04-03T12:01:54;12.80;58.40
5246;DHT22;54412;51.206;6.888;2023-04-03T12:04:25;12.80;60.70
5246;DHT22;54412;51.206;6.888;2023-04-03T12:07:12;13.30;59.50
5246;DHT22;54412;51.206;6.888;2023-04-03T12:15:25;13.60;59.10
5246;DHT22;54412;51.206;6.888;2023-04-03T12:21:03;13.70;60.10
5246;DHT22;54412;51.206;6.888;2023-04-03T12:23:34;13.70;58.30
5246;DHT22;54412;51.206;6.888;2023-04-03T12:26:22;13.80;58.40
5246;DHT22;54412;51.206;6.888;2023-04-03T12:28:53;13.70;55.80
5246;DHT22;54412;51.206;6.888;2023-04-03T12:31:23;14.00;58.20
5246;DHT22;54412;51.206;6.888;2023-04-03T12:34:16;14.10;58.90
5246;DHT22;54412;51.206;6.888;2023-04-03T12:39:51;13.80;58.30
5246;DHT22;54412;51.206;6.888;2023-04-03T12:45:23;14.30;61.00
5246;DHT22;54412;51.206;6.888;2023-04-03T12:47:55;14.30;59.20
5246;DHT22;54412;51.206;6.888;2023-04-03T12:50:28;14.80;60.80
5246;DHT22;54412;51.206;6.888;2023-04-03T12:53:02;14.90;59.00
5246;DHT22;54412;51.206;6.888;2023-04-03T12:55:31;15.10;59.00
5246;DHT22;54412;51.206;6.888;2023-04-03T12:58:12;14.80;58.90
5246;DHT22;54412;51.206;6.888;2023-04-03T13:00:40;14.70;58.70
5246;DHT22;54412;51.206;6.888;2023-04-03T13:03:17;14.10;58.40
5246;DHT22;54412;51.206;6.888;2023-04-03T13:05:48;14.40;59.70
5246;DHT22;54412;51.206;6.888;2023-04-03T13:08:14;14.10;59.70
5246;DHT22;54412;51.206;6.888;2023-04-03T13:11:01;14.30;62.50
5246;DHT22;54412;51.206;6.888;2023-04-03T13:13:31;14.80;62.80
5246;DHT22;54412;51.206;6.888;2023-04-03T13:15:57;14.80;61.10
5246;DHT22;54412;51.206;6.888;2023-04-03T13:18:36;14.80;61.20
5246;DHT22;54412;51.206;6.888;2023-04-03T13:21:12;14.40;59.70
5246;DHT22;54412;51.206;6.888;2023-04-03T13:23:45;14.70;61.10
5246;DHT22;54412;51.206;6.888;2023-04-03T13:26:20;14.10;58.40
5246;DHT22;54412;51.206;6.888;2023-04-03T13:28:47;13.60;58.60
5246;DHT22;54412;51.206;6.888;2023-04-03T13:31:27;13.40;59.00
5246;DHT22;54412;51.206;6.888;2023-04-03T13:34:04;13.40;59.80
5246;DHT22;54412;51.206;6.888;2023-04-03T13:39:28;13.60;61.00
5246;DHT22;54412;51.206;6.888;2023-04-03T13:42:00;13.60;63.60
5246;DHT22;54412;51.206;6.888;2023-04-03T13:44:39;13.80;64.80
5246;DHT22;54412;51.206;6.888;2023-04-03T13:49:43;14.20;63.30
5246;DHT22;54412;51.206;6.888;2023-04-03T13:52:29;13.90;64.00
5246;DHT22;54412;51.206;6.888;2023-04-03T13:55:04;14.30;63.60
5246;DHT22;54412;51.206;6.888;2023-04-03T14:06:24;13.60;64.20
5246;DHT22;54412;51.206;6.888;2023-04-03T14:08:50;14.00;64.80
5246;DHT22;54412;51.206;6.888;2023-04-03T14:11:24;13.70;62.60
5246;DHT22;54412;51.206;6.888;2023-04-03T14:13:53;13.20;63.00
5246;DHT22;54412;51.206;6.888;2023-04-03T14:16:26;13.20;65.70
5246;DHT22;54412;51.206;6.888;2023-04-03T14:18:55;13.10;65.20
5246;DHT22;54412;51.206;6.888;2023-04-03T14:21:22;13.40;67.50
5246;DHT22;54412;51.206;6.888;2023-04-03T14:23:49;13.60;65.40
5246;DHT22;54412;51.206;6.888;2023-04-03T14:26:18;13.50;65.80
5246;DHT22;54412;51.206;6.888;2023-04-03T14:28:49;13.20;66.70
5246;DHT22;54412;51.206;6.888;2023-04-03T14:31:17;13.20;66.90
5246;DHT22;54412;51.206;6.888;2023-04-03T14:33:43;13.00;66.80
5246;DHT22;54412;51.206;6.888;2023-04-03T14:36:20;13.00;67.80
5246;DHT22;54412;51.206;6.888;2023-04-03T14:38:49;13.30;70.60
5246;DHT22;54412;51.206;6.888;2023-04-03T14:41:17;13.20;68.90
5246;DHT22;54412;51.206;6.888;2023-04-03T14:43:48;12.80;67.10
5246;DHT22;54412;51.206;6.888;2023-04-03T14:46:26;12.70;67.80
5246;DHT22;54412;51.206;6.888;2023-04-03T14:48:55;12.70;69.40
5246;DHT22;54412;51.206;6.888;2023-04-03T14:51:21;12.70;69.50
5246;DHT22;54412;51.206;6.888;2023-04-03T14:53:47;12.50;68.60
5246;DHT22;54412;51.206;6.888;2023-04-03T14:56:18;12.50;69.20
5246;DHT22;54412;51.206;6.888;2023-04-03T14:58:49;12.20;68.90
5246;DHT22;54412;51.206;6.888;2023-04-03T15:01:22;12.40;71.90
5246;DHT22;54412;51.206;6.888;2023-04-03T15:03:49;12.40;72.60
5246;DHT22;54412;51.206;6.888;2023-04-03T15:06:15;12.40;70.60
5246;DHT22;54412;51.206;6.888;2023-04-03T15:08:42;12.50;71.60
5246;DHT22;54412;51.206;6.888;2023-04-03T15:11:10;12.50;72.50
5246;DHT22;54412;51.206;6.888;2023-04-03T15:13:37;12.30;71.80
5246;DHT22;54412;51.206;6.888;2023-04-03T15:16:04;12.10;71.40
5246;DHT22;54412;51.206;6.888;2023-04-03T15:18:51;12.00;72.80
5246;DHT22;54412;51.206;6.888;2023-04-03T15:21:16;12.00;72.80
5246;DHT22;54412;51.206;6.888;2023-04-03T15:23:42;11.80;71.90
5246;DHT22;54412;51.206;6.888;2023-04-03T15:26:08;12.00;73.80
5246;DHT22;54412;51.206;6.888;2023-04-03T15:28:40;12.00;73.60
5246;DHT22;54412;51.206;6.888;2023-04-03T15:31:08;11.90;72.80
5246;DHT22;54412;51.206;6.888;2023-04-03T15:33:34;11.70;73.80
5246;DHT22;54412;51.206;6.888;2023-04-03T15:36:02;11.50;73.10
5246;DHT22;54412;51.206;6.888;2023-04-03T15:38:28;11.40;74.50
5246;DHT22;54412;51.206;6.888;2023-04-03T15:40:55;11.40;74.10
5246;DHT22;54412;51.206;6.888;2023-04-03T15:43:20;11.50;74.80
5246;DHT22;54412;51.206;6.888;2023-04-03T15:45:47;11.60;74.80
5246;DHT22;54412;51.206;6.888;2023-04-03T15:48:14;11.60;73.60
5246;DHT22;54412;51.206;6.888;2023-04-03T15:50:40;11.60;74.90
5246;DHT22;54412;51.206;6.888;2023-04-03T15:53:07;11.50;74.10
5246;DHT22;54412;51.206;6.888;2023-04-03T15:55:36;11.30;73.90
5246;DHT22;54412;51.206;6.888;2023-04-03T15:58:04;11.20;75.30
5246;DHT22;54412;51.206;6.888;2023-04-03T16:00:30;11.10;75.80
5246;DHT22;54412;51.206;6.888;2023-04-03T16:03:04;11.10;75.20
5246;DHT22;54412;51.206;6.888;2023-04-03T16:05:51;11.10;75.40
5246;DHT22;54412;51.206;6.888;2023-04-03T16:08:18;11.30;76.70
5246;DHT22;54412;51.206;6.888;2023-04-03T16:10:44;11.40;76.60
5246;DHT22;54412;51.206;6.888;2023-04-03T16:13:13;11.40;76.00
5246;DHT22;54412;51.206;6.888;2023-04-03T16:15:39;11.20;75.60
5246;DHT22;54412;51.206;6.888;2023-04-03T16:18:07;11.10;75.40
5246;DHT22;54412;51.206;6.888;2023-04-03T16:20:34;11.00;76.70
5246;DHT22;54412;51.206;6.888;2023-04-03T16:23:00;10.80;76.00
5246;DHT22;54412;51.206;6.888;2023-04-03T16:25:27;10.90;77.00
5246;DHT22;54412;51.206;6.888;2023-04-03T16:27:52;10.90;76.30
5246;DHT22;54412;51.206;6.888;2023-04-03T16:30:18;10.80;75.60
5246;DHT22;54412;51.206;6.888;2023-04-03T16:32:45;10.80;77.70
5246;DHT22;54412;51.206;6.888;2023-04-03T16:35:11;10.80;76.70
5246;DHT22;54412;51.206;6.888;2023-04-03T16:37:38;10.80;76.80
5246;DHT22;54412;51.206;6.888;2023-04-03T16:40:06;10.60;77.80
5246;DHT22;54412;51.206;6.888;2023-04-03T16:42:32;10.70;79.30
5246;DHT22;54412;51.206;6.888;2023-04-03T16:44:58;10.70;79.30
5246;DHT22;54412;51.206;6.888;2023-04-03T16:47:26;10.60;79.50
5246;DHT22;54412;51.206;6.888;2023-04-03T16:49:52;10.60;79.70
5246;DHT22;54412;51.206;6.888;2023-04-03T16:52:17;10.60;79.10
5246;DHT22;54412;51.206;6.888;2023-04-03T16:54:43;10.60;78.60
5246;DHT22;54412;51.206;6.888;2023-04-03T16:57:08;10.50;79.30
5246;DHT22;54412;51.206;6.888;2023-04-03T16:59:34;10.30;78.50
5246;DHT22;54412;51.206;6.888;2023-04-03T17:02:00;10.30;79.30
5246;DHT22;54412;51.206;6.888;2023-04-03T17:04:26;10.30;80.70
5246;DHT22;54412;51.206;6.888;2023-04-03T17:06:51;10.20;79.20
5246;DHT22;54412;51.206;6.888;2023-04-03T17:09:17;10.00;80.40
5246;DHT22;54412;51.206;6.888;2023-04-03T17:11:43;10.00;80.70
5246;DHT22;54412;51.206;6.888;2023-04-03T17:14:09;9.90;80.60
5246;DHT22;54412;51.206;6.888;2023-04-03T17:16:36;10.00;80.90
5246;DHT22;54412;51.206;6.888;2023-04-03T17:19:03;9.90;81.30
5246;DHT22;54412;51.206;6.888;2023-04-03T17:21:30;10.00;81.40
5246;DHT22;54412;51.206;6.888;2023-04-03T17:24:02;9.90;81.70
5246;DHT22;54412;51.206;6.888;2023-04-03T17:26:32;9.80;81.20
5246;DHT22;54412;51.206;6.888;2023-04-03T17:28:58;9.80;82.00
5246;DHT22;54412;51.206;6.888;2023-04-03T17:31:24;9.70;82.00
5246;DHT22;54412;51.206;6.888;2023-04-03T17:33:49;9.60;83.40
5246;DHT22;54412;51.206;6.888;2023-04-03T17:36:15;9.70;83.70
5246;DHT22;54412;51.206;6.888;2023-04-03T17:38:41;9.60;84.00
5246;DHT22;54412;51.206;6.888;2023-04-03T17:41:08;9.60;83.20